createdAt,value
2023-03-22T00:01:30.977Z,98880.28
2023-03-22T00:07:32.955Z,98880.72
2023-03-22T00:13:37.291Z,98866.97
2023-03-22T00:19:42.117Z,98856.22
2023-03-22T00:25:45.627Z,98855.38
2023-03-22T00:31:49.075Z,98844.22
2023-03-22T00:37:51.607Z,98843.50
2023-03-22T00:43:53.502Z,98839.16
2023-03-22T00:49:55.588Z,98845.75
2023-03-22T00:55:57.681Z,98838.88
2023-03-22T01:01:59.598Z,98840.63
2023-03-22T01:08:08.531Z,98839.97
2023-03-22T01:14:13.699Z,98830.25
2023-03-22T01:20:15.714Z,98823.44
2023-03-22T01:26:17.627Z,98815.75
2023-03-22T01:32:19.570Z,98817.59
2023-03-22T01:53:54.676Z,98793.56
2023-03-22T01:59:56.623Z,98795.41
2023-03-22T02:05:58.623Z,98782.06
2023-03-22T02:12:40.431Z,98780.66
2023-03-22T02:19:10.395Z,98783.53
2023-03-22T02:25:33.663Z,98773.09
2023-03-22T02:32:29.871Z,98776.88
2023-03-22T02:39:04.558Z,98771.16
2023-03-22T02:45:23.301Z,98775.88
2023-03-22T02:51:59.106Z,98767.00
2023-03-22T02:58:11.972Z,98765.78
2023-03-22T03:04:24.685Z,98766.63
2023-03-22T03:10:27.442Z,98759.41
2023-03-22T03:16:34.608Z,98752.25
2023-03-22T03:22:42.385Z,98754.81
2023-03-22T03:29:00.748Z,98770.59
2023-03-22T03:35:22.580Z,98759.72
2023-03-22T03:41:29.718Z,98737.31
2023-03-22T03:47:32.160Z,98746.78
2023-03-22T03:53:34.071Z,98736.94
2023-03-22T03:59:36.121Z,98739.16
2023-03-22T04:05:38.505Z,98727.84
2023-03-22T04:11:40.751Z,98730.94
2023-03-22T04:17:42.664Z,98728.88
2023-03-22T04:23:46.657Z,98727.00
2023-03-22T04:29:48.675Z,98713.25
2023-03-22T04:35:56.716Z,98707.53
2023-03-22T04:41:58.707Z,98699.00
2023-03-22T04:48:00.661Z,98701.31
2023-03-22T04:54:02.609Z,98705.81
2023-03-22T05:00:08.386Z,98703.66
2023-03-22T05:06:10.524Z,98712.66
2023-03-22T05:12:12.419Z,98700.75
2023-03-22T05:18:14.749Z,98692.69
2023-03-22T05:24:16.664Z,98685.94
2023-03-22T05:30:18.795Z,98696.53
2023-03-22T05:36:23.034Z,98696.16
2023-03-22T05:42:25.488Z,98697.88
2023-03-22T05:48:27.375Z,98698.38
2023-03-22T05:54:29.282Z,98706.09
2023-03-22T06:00:32.235Z,98713.75
2023-03-22T06:06:34.189Z,98700.72
2023-03-22T06:12:36.879Z,98698.72
2023-03-22T06:18:38.899Z,98691.53
2023-03-22T06:24:42.347Z,98697.13
2023-03-22T06:30:44.353Z,98696.72
2023-03-22T06:36:46.276Z,98696.06
2023-03-22T06:42:48.399Z,98690.28
2023-03-22T06:48:50.311Z,98686.50
2023-03-22T06:54:52.201Z,98684.09
2023-03-22T07:00:56.657Z,98695.84
2023-03-22T07:06:58.632Z,98694.72
2023-03-22T07:13:02.960Z,98693.56
2023-03-22T07:19:04.879Z,98697.56
2023-03-22T07:25:07.239Z,98670.78
2023-03-22T07:31:11.782Z,98673.75
2023-03-22T07:37:14.923Z,98678.69
2023-03-22T07:43:16.839Z,98675.25
2023-03-22T07:49:19.068Z,98664.81
2023-03-22T07:55:21.054Z,98659.78
2023-03-22T08:01:22.975Z,98653.88
2023-03-22T08:07:25.224Z,98642.09
2023-03-22T08:13:27.103Z,98652.41
2023-03-22T08:19:29.119Z,98648.78
2023-03-22T08:25:33.468Z,98644.50
2023-03-22T08:31:36.724Z,98648.13
2023-03-22T08:37:40.058Z,98644.03
2023-03-22T08:43:43.024Z,98634.31
2023-03-22T08:49:45.149Z,98626.09
2023-03-22T08:55:47.196Z,98624.97
2023-03-22T09:01:49.483Z,98605.22
2023-03-22T09:07:54.584Z,98631.84
2023-03-22T09:13:56.461Z,98639.66
2023-03-22T09:20:11.495Z,98643.59
2023-03-22T09:26:15.057Z,98635.72
2023-03-22T09:32:17.865Z,98634.97
2023-03-22T09:38:20.555Z,98598.09
2023-03-22T09:44:39.375Z,98591.56
2023-03-22T09:50:53.370Z,98585.75
2023-03-22T09:57:19.836Z,98583.59
2023-03-22T10:04:14.690Z,98570.34
2023-03-22T10:10:23.491Z,98566.72
2023-03-22T10:16:33.421Z,98545.66
2023-03-22T10:22:43.937Z,98563.72
2023-03-22T10:28:54.043Z,98552.84
2023-03-22T10:34:57.318Z,98558.69
2023-03-22T10:41:02.091Z,98552.06
2023-03-22T10:47:08.241Z,98552.41
2023-03-22T10:53:45.881Z,98561.78
2023-03-22T10:59:55.342Z,98567.03
2023-03-22T11:06:25.822Z,98546.97
2023-03-22T11:12:27.770Z,98551.09
2023-03-22T11:18:32.336Z,98543.09
2023-03-22T11:24:35.326Z,98550.84
2023-03-22T11:30:37.901Z,98541.06
2023-03-22T11:43:13.328Z,98516.28
2023-03-22T11:49:17.738Z,98506.38
2023-03-22T11:55:20.714Z,98508.09
2023-03-22T12:01:39.532Z,98499.00
2023-03-22T12:07:42.978Z,98508.09
2023-03-22T12:14:20.268Z,98499.16
2023-03-22T12:21:01.256Z,98513.97
2023-03-22T12:27:31.761Z,98525.66
2023-03-22T12:33:47.953Z,98531.25
2023-03-22T12:40:15.455Z,98500.78
2023-03-22T12:46:29.759Z,98510.75
2023-03-22T12:53:02.407Z,98503.97
2023-03-22T12:59:11.856Z,98498.97
2023-03-22T13:05:14.326Z,98489.81
2023-03-22T13:11:24.334Z,98503.66
2023-03-22T13:17:26.204Z,98495.22
2023-03-22T13:23:28.340Z,98491.66
2023-03-22T13:29:33.156Z,98485.59
2023-03-22T13:35:57.744Z,98482.06
2023-03-22T13:42:16.137Z,98466.91
2023-03-22T13:48:56.137Z,98453.63
2023-03-22T13:54:59.363Z,98439.34
2023-03-22T14:01:02.919Z,98444.16
2023-03-22T14:07:33.767Z,98442.69
2023-03-22T14:13:44.359Z,98434.31
2023-03-22T14:19:47.494Z,98431.56
